Time;durP1;ratioP1;P1;durP2;ratioP2;P2;SDS_P1;SDS_P2;PMS_P1;PMS_P2;Temp;Humidity;BMP_temperature;BMP_pressure;BME280_temperature;BME280_humidity;BME280_pressure;Samples;Min_cycle;Max_cycle;Signal;HPM_P1;HPM_P2
2024/01/25 00:00:37;;;;;;;22.83;4.85;;;6.40;99.90;;;;;;4905158;29;20055;-94
2024/01/25 00:03:20;;;;;;;25.58;4.85;;;7.30;99.90;;;;;;4905157;29;20480;-94
2024/01/25 00:05:47;;;;;;;24.88;5.13;;;9.40;99.90;;;;;;4906020;29;20107;-93
2024/01/25 00:08:22;;;;;;;20.60;4.33;;;8.90;99.90;;;;;;4906260;29;20064;-94
2024/01/25 00:10:48;;;;;;;27.13;5.32;;;7.70;99.90;;;;;;4906572;29;20048;-93
2024/01/25 00:13:22;;;;;;;21.50;4.68;;;6.80;99.90;;;;;;4906103;29;20515;-94
2024/01/25 00:15:54;;;;;;;27.47;4.10;;;9.00;99.90;;;;;;4905430;29;20044;-93
2024/01/25 00:18:26;;;;;;;24.75;4.70;;;7.70;99.90;;;;;;4907817;29;20044;-94
2024/01/25 00:20:54;;;;;;;25.07;4.83;;;7.70;99.90;;;;;;4906266;29;20488;-93
2024/01/25 00:23:29;;;;;;;29.83;5.60;;;7.70;99.90;;;;;;4907566;29;20064;-94
2024/01/25 00:25:59;;;;;;;26.88;4.50;;;7.10;99.90;;;;;;4905939;29;20044;-93
2024/01/25 00:28:31;;;;;;;22.77;4.87;;;9.30;99.90;;;;;;4904413;29;20044;-94
2024/01/25 00:31:08;;;;;;;21.67;5.03;;;7.30;99.90;;;;;;4903947;29;20123;-93
2024/01/25 00:33:44;;;;;;;27.33;4.70;;;7.50;99.90;;;;;;4904287;29;20140;-92
2024/01/25 00:36:13;;;;;;;22.90;5.15;;;6.70;99.90;;;;;;4903524;29;20040;-93
2024/01/25 00:38:42;;;;;;;19.97;4.27;;;7.60;99.90;;;;;;4903390;29;20083;-94
2024/01/25 00:41:20;;;;;;;19.35;4.00;;;7.60;99.90;;;;;;4906942;29;20052;-93
2024/01/25 00:43:46;;;;;;;22.87;4.70;;;7.60;99.90;;;;;;4906113;29;20044;-93
2024/01/25 00:46:26;;;;;;;23.77;4.38;;;7.60;99.90;;;;;;4903310;29;20052;-93
2024/01/25 00:48:58;;;;;;;24.48;4.20;;;7.60;99.90;;;;;;4904843;29;20096;-94
2024/01/25 00:53:53;;;;;;;21.17;4.00;;;7.50;99.90;;;;;;4917902;29;20067;-95
2024/01/25 00:56:25;;;;;;;23.07;4.40;;;7.40;99.90;;;;;;4918998;29;20386;-94
2024/01/25 00:59:02;;;;;;;22.83;4.30;;;7.50;99.90;;;;;;4919950;29;20047;-93
2024/01/25 01:01:38;;;;;;;23.37;4.33;;;7.70;99.90;;;;;;4920667;29;20048;-93
2024/01/25 01:04:14;;;;;;;32.17;5.07;;;9.20;99.90;;;;;;4919218;29;20064;-94
2024/01/25 01:06:47;;;;;;;23.43;4.47;;;7.40;99.90;;;;;;4919731;29;20171;-93
2024/01/25 01:09:22;;;;;;;27.98;4.90;;;7.40;99.90;;;;;;4919128;29;20389;-94
2024/01/25 01:11:53;;;;;;;20.10;4.30;;;7.30;99.90;;;;;;4919262;29;20048;-95
2024/01/25 01:14:19;;;;;;;22.37;4.13;;;7.80;99.90;;;;;;4918816;29;20047;-93
2024/01/25 01:16:45;;;;;;;23.80;4.30;;;7.00;99.90;;;;;;4918467;29;20047;-93
2024/01/25 01:19:20;;;;;;;21.27;4.53;;;7.30;99.90;;;;;;4917989;29;20087;-94
2024/01/25 01:21:51;;;;;;;24.63;4.97;;;8.60;99.90;;;;;;4919005;29;20504;-93
2024/01/25 01:24:20;;;;;;;19.37;4.47;;;8.10;99.90;;;;;;4919632;29;20048;-94
2024/01/25 01:26:55;;;;;;;22.70;4.77;;;7.80;99.90;;;;;;4918623;29;20130;-94
2024/01/25 01:32:55;;;;;;;22.93;4.90;;;7.00;99.90;;;;;;4919513;29;20045;-93
2024/01/25 01:35:26;;;;;;;28.87;4.40;;;8.20;99.90;;;;;;4918680;29;20067;-93
2024/01/25 01:37:54;;;;;;;26.20;4.43;;;8.20;99.90;;;;;;4919474;29;20134;-94
2024/01/25 01:40:20;;;;;;;26.67;4.47;;;8.00;99.90;;;;;;4919798;29;20432;-93
2024/01/25 01:42:46;;;;;;;24.50;5.63;;;6.80;99.90;;;;;;4919081;29;20080;-95
2024/01/25 01:45:12;;;;;;;23.33;4.40;;;7.50;99.90;;;;;;4918174;29;20056;-95
2024/01/25 01:47:42;;;;;;;24.43;4.60;;;8.10;99.90;;;;;;4920032;29;20052;-94
2024/01/25 01:50:14;;;;;;;26.27;4.33;;;8.20;99.90;;;;;;4921535;29;20052;-93
2024/01/25 01:52:48;;;;;;;30.57;4.87;;;6.70;99.90;;;;;;4918969;29;20130;-94
2024/01/25 01:55:23;;;;;;;24.57;5.03;;;6.60;99.90;;;;;;4917914;29;20055;-94
2024/01/25 01:57:59;;;;;;;30.47;5.03;;;7.20;99.90;;;;;;4950478;28;20082;-93
2024/01/25 02:00:32;;;;;;;27.30;4.90;;;5.80;99.90;;;;;;4919651;29;20135;-95
2024/01/25 02:03:01;;;;;;;24.27;4.80;;;8.30;99.90;;;;;;4912354;29;20040;-93
2024/01/25 02:05:39;;;;;;;25.63;5.10;;;5.60;99.90;;;;;;4918732;29;20052;-95
2024/01/25 02:08:14;;;;;;;24.47;5.17;;;5.80;99.90;;;;;;4918261;29;20044;-93
2024/01/25 02:10:49;;;;;;;28.70;4.77;;;7.50;99.90;;;;;;4917542;29;20493;-94
2024/01/25 02:13:17;;;;;;;30.63;4.97;;;5.20;99.90;;;;;;4917818;29;20082;-93
2024/01/25 02:15:43;;;;;;;29.67;5.40;;;6.00;99.90;;;;;;4918206;29;20064;-94
2024/01/25 02:18:18;;;;;;;26.73;5.00;;;7.40;99.90;;;;;;4918881;29;20488;-93
2024/01/25 02:20:50;;;;;;;31.30;5.40;;;6.10;99.90;;;;;;4919467;29;20437;-94
2024/01/25 02:23:25;;;;;;;28.97;5.37;;;5.40;99.90;;;;;;4920137;29;20111;-93
2024/01/25 02:26:03;;;;;;;28.00;5.23;;;5.30;99.90;;;;;;4921728;29;20048;-95
2024/01/25 02:28:51;;;;;;;29.33;5.67;;;5.50;99.90;;;;;;4922230;29;20044;-93
2024/01/25 02:31:16;;;;;;;28.17;5.23;;;6.80;99.90;;;;;;4921330;29;20083;-93
2024/01/25 02:33:42;;;;;;;31.97;6.07;;;5.40;99.90;;;;;;4919901;29;20040;-95
2024/01/25 02:36:25;;;;;;;27.07;4.93;;;6.50;99.90;;;;;;4921010;29;20052;-93
2024/01/25 02:38:51;;;;;;;29.40;5.45;;;6.90;99.90;;;;;;4923872;29;20044;-93
2024/01/25 02:41:22;;;;;;;34.00;5.17;;;5.70;99.90;;;;;;4924648;29;20115;-93
2024/01/25 02:43:54;;;;;;;32.60;5.73;;;7.00;99.90;;;;;;4923290;29;20452;-93
2024/01/25 02:46:20;;;;;;;28.43;4.20;;;5.60;99.90;;;;;;4922791;29;20052;-94
2024/01/25 02:48:58;;;;;;;26.07;4.17;;;6.90;99.90;;;;;;4922561;29;20052;-92
2024/01/25 02:51:33;;;;;;;28.50;5.50;;;4.90;99.90;;;;;;4918976;29;20048;-93
2024/01/25 02:54:53;;;;;;;33.10;6.40;;;5.50;99.90;;;;;;4946345;23;20068;-94
2024/01/25 02:57:21;;;;;;;19.87;4.33;;;5.50;99.90;;;;;;4940583;29;20058;-92
2024/01/25 03:00:21;;;;;;;24.87;4.67;;;5.30;99.90;;;;;;4922103;29;20048;-93
2024/01/25 03:02:50;;;;;;;33.70;6.10;;;5.00;99.90;;;;;;4924566;29;20504;-95
2024/01/25 03:05:25;;;;;;;24.70;4.47;;;5.70;99.90;;;;;;4924736;29;20115;-93
2024/01/25 03:08:03;;;;;;;29.87;4.90;;;7.30;99.90;;;;;;4924983;29;20052;-93
2024/01/25 03:10:38;;;;;;;25.10;5.63;;;4.90;99.90;;;;;;4925820;29;20047;-94
2024/01/25 03:13:10;;;;;;;25.47;4.60;;;5.40;99.90;;;;;;4923772;29;20453;-94
2024/01/25 03:15:46;;;;;;;26.77;5.67;;;4.90;99.90;;;;;;4924689;29;20047;-94
2024/01/25 03:18:32;;;;;;;30.87;4.47;;;5.50;99.90;;;;;;4924068;29;20792;-93
2024/01/25 03:21:07;;;;;;;25.50;4.97;;;5.30;99.90;;;;;;4924335;29;20044;-93
2024/01/25 03:23:44;;;;;;;28.30;4.90;;;5.50;99.90;;;;;;4925510;29;20051;-93
2024/01/25 03:26:18;;;;;;;21.83;3.97;;;7.00;99.90;;;;;;4924031;29;20046;-94
2024/01/25 03:28:50;;;;;;;30.60;5.00;;;6.10;99.90;;;;;;4923608;29;20051;-94
2024/01/25 03:31:16;;;;;;;25.40;4.27;;;6.10;99.90;;;;;;4924561;29;20047;-93
2024/01/25 03:33:42;;;;;;;26.57;5.43;;;6.50;99.90;;;;;;5079478;23;20040;-93
2024/01/25 03:36:08;;;;;;;27.60;3.97;;;6.50;99.90;;;;;;4939654;29;20060;-93
2024/01/25 03:38:42;;;;;;;31.17;5.77;;;5.30;99.90;;;;;;4940663;29;20134;-94
2024/01/25 03:41:14;;;;;;;31.63;5.70;;;5.40;99.90;;;;;;4940206;29;20050;-93
2024/01/25 03:44:01;;;;;;;25.03;4.77;;;5.00;99.90;;;;;;4939786;23;20080;-92
2024/01/25 03:46:32;;;;;;;25.90;4.40;;;6.90;99.90;;;;;;4920568;29;20060;-92
2024/01/25 03:49:10;;;;;;;28.77;5.33;;;4.90;99.90;;;;;;4920922;29;20099;-94
2024/01/25 03:51:38;;;;;;;29.50;5.53;;;6.60;99.90;;;;;;4920626;29;20056;-95
2024/01/25 03:54:13;;;;;;;32.13;5.67;;;6.50;99.90;;;;;;4920269;29;20180;-94
2024/01/25 03:56:42;;;;;;;27.97;5.53;;;7.10;99.90;;;;;;4920153;29;20048;-94
2024/01/25 03:59:14;;;;;;;34.93;5.37;;;5.10;99.90;;;;;;4920419;29;20090;-94
2024/01/25 04:01:49;;;;;;;30.53;5.70;;;6.00;99.90;;;;;;4921057;29;20052;-94
2024/01/25 04:04:24;;;;;;;27.83;5.23;;;4.90;99.90;;;;;;4931973;29;20040;-95
2024/01/25 04:06:59;;;;;;;28.17;5.17;;;4.10;99.90;;;;;;4936424;29;20079;-93
2024/01/25 04:09:34;;;;;;;33.03;6.57;;;5.90;99.90;;;;;;4922347;29;20441;-94
2024/01/25 04:12:03;;;;;;;28.67;4.80;;;5.00;99.90;;;;;;4920442;29;20497;-95
2024/01/25 04:14:35;;;;;;;32.43;5.27;;;5.20;99.90;;;;;;4921284;29;20051;-94
2024/01/25 04:17:10;;;;;;;34.37;5.80;;;5.60;99.90;;;;;;4920092;29;20056;-94
2024/01/25 04:19:39;;;;;;;39.43;5.50;;;5.50;99.90;;;;;;4920381;29;20052;-94
2024/01/25 04:22:14;;;;;;;35.57;6.70;;;5.00;99.90;;;;;;4920067;29;20103;-94
2024/01/25 04:24:40;;;;;;;28.73;5.67;;;5.70;99.90;;;;;;4920111;29;20051;-94
2024/01/25 04:27:10;;;;;;;32.87;6.20;;;4.20;99.90;;;;;;4920221;29;20048;-94
2024/01/25 04:30:01;;;;;;;28.40;5.43;;;5.10;99.90;;;;;;4904805;29;20060;-94
2024/01/25 04:32:36;;;;;;;26.53;4.47;;;5.00;99.90;;;;;;4920696;29;20048;-94
2024/01/25 04:35:11;;;;;;;28.80;5.37;;;5.70;99.90;;;;;;4921388;29;20047;-95
2024/01/25 04:37:43;;;;;;;37.17;5.67;;;5.20;99.90;;;;;;4904767;29;20504;-93
2024/01/25 04:40:21;;;;;;;30.73;5.67;;;5.00;99.90;;;;;;4934299;29;20071;-93
2024/01/25 04:42:56;;;;;;;38.03;6.77;;;4.70;99.90;;;;;;4936873;29;20024;-94
2024/01/25 04:45:34;;;;;;;25.30;5.20;;;4.70;99.90;;;;;;4929555;23;20083;-94
2024/01/25 04:48:05;;;;;;;34.50;5.23;;;5.00;99.90;;;;;;4927147;23;20052;-93
2024/01/25 04:50:31;;;;;;;24.60;4.80;;;4.70;99.90;;;;;;4920199;29;20048;-95
2024/01/25 04:53:02;;;;;;;34.97;5.43;;;4.60;99.90;;;;;;4920265;29;20107;-93
2024/01/25 04:55:31;;;;;;;26.47;4.60;;;4.70;99.90;;;;;;4905393;29;20052;-94
2024/01/25 04:58:17;;;;;;;25.50;4.17;;;5.00;99.90;;;;;;4919162;29;20051;-93
2024/01/25 05:00:50;;;;;;;29.47;4.50;;;6.00;99.90;;;;;;4919161;29;20075;-94
2024/01/25 05:03:25;;;;;;;29.50;4.93;;;4.60;99.90;;;;;;4915203;29;20048;-93
2024/01/25 05:05:54;;;;;;;38.23;6.23;;;5.00;99.90;;;;;;4918800;29;20048;-93
2024/01/25 05:08:29;;;;;;;29.93;5.30;;;4.20;99.90;;;;;;4919202;29;20048;-93
2024/01/25 05:11:04;;;;;;;32.63;5.97;;;5.60;99.90;;;;;;4920077;29;20047;-93
2024/01/25 05:13:42;;;;;;;27.70;5.87;;;4.80;99.90;;;;;;4925561;29;20117;-93
2024/01/25 05:16:39;;;;;;;32.20;5.37;;;3.70;99.90;;;;;;4936564;29;20044;-94
2024/01/25 05:19:04;;;;;;;24.07;4.20;;;5.30;99.90;;;;;;4921942;29;20055;-93
2024/01/25 05:21:35;;;;;;;28.63;5.47;;;3.30;99.90;;;;;;4921009;29;20040;-94
2024/01/25 05:24:07;;;;;;;31.17;5.50;;;5.30;99.90;;;;;;4923074;29;20092;-93
2024/01/25 05:26:35;;;;;;;30.97;4.87;;;4.30;99.90;;;;;;4930247;29;20048;-94
2024/01/25 05:29:10;;;;;;;27.50;5.17;;;4.30;99.90;;;;;;4927674;29;20072;-94
2024/01/25 05:31:55;;;;;;;29.70;6.10;;;3.40;99.90;;;;;;4934543;29;20048;-94
2024/01/25 05:34:21;;;;;;;25.07;4.83;;;3.20;99.90;;;;;;4934334;29;20445;-93
2024/01/25 05:36:47;;;;;;;21.83;4.77;;;4.00;99.90;;;;;;4936695;29;20044;-93
2024/01/25 05:39:20;;;;;;;29.83;5.63;;;5.20;99.90;;;;;;4940691;29;20071;-94
2024/01/25 05:41:49;;;;;;;28.20;4.70;;;4.20;99.90;;;;;;4924081;29;20048;-93
2024/01/25 05:44:26;;;;;;;29.20;5.13;;;3.70;99.90;;;;;;4927358;23;20055;-93
2024/01/25 05:46:52;;;;;;;24.60;5.07;;;5.10;99.90;;;;;;4919456;29;20051;-93
2024/01/25 05:49:25;;;;;;;24.13;4.80;;;4.60;99.90;;;;;;4918168;29;20052;-94
2024/01/25 05:51:52;;;;;;;29.27;4.67;;;4.90;99.90;;;;;;4941172;23;20070;-94
2024/01/25 05:54:17;;;;;;;29.60;5.47;;;3.90;99.90;;;;;;4919756;29;20052;-96
2024/01/25 05:56:52;;;;;;;26.30;4.93;;;3.10;99.90;;;;;;4919798;29;20044;-95
2024/01/25 05:59:30;;;;;;;25.40;4.83;;;3.90;99.90;;;;;;4920844;29;20048;-93
2024/01/25 06:02:09;;;;;;;28.83;4.77;;;4.80;99.90;;;;;;4918104;29;20473;-93
2024/01/25 06:04:53;;;;;;;25.57;6.03;;;3.90;99.90;;;;;;4918797;29;20063;-94
2024/01/25 06:07:41;;;;;;;;;;;4.00;99.90;;;;;;4918708;29;20051;-94
2024/01/25 06:10:10;;;;;;;32.40;6.00;;;4.10;99.90;;;;;;4933356;29;19919;-93
2024/01/25 06:12:45;;;;;;;32.50;6.50;;;4.10;99.90;;;;;;4917917;29;20108;-93
2024/01/25 06:15:17;;;;;;;26.57;5.77;;;4.10;99.90;;;;;;4918547;29;20055;-95
2024/01/25 06:18:03;;;;;;;25.33;5.50;;;4.10;99.90;;;;;;4918989;29;20484;-95
2024/01/25 06:20:38;;;;;;;28.67;5.60;;;3.00;99.90;;;;;;4918350;29;20052;-96
2024/01/25 06:23:13;;;;;;;29.70;5.73;;;4.10;99.90;;;;;;4928257;29;20054;-95
2024/01/25 06:25:57;;;;;;;27.47;6.57;;;5.80;99.90;;;;;;4938085;29;20167;-95
2024/01/25 06:28:24;;;;;;;;;;;5.50;99.90;;;;;;4924374;29;20040;-93
2024/01/25 06:34:56;;;;;;;35.13;5.30;;;4.20;99.90;;;;;;4919195;29;20103;-96
2024/01/25 06:37:21;;;;;;;29.23;4.80;;;4.30;99.90;;;;;;4916305;29;20051;-95
2024/01/25 06:40:07;;;;;;;32.00;5.37;;;3.70;99.90;;;;;;4879556;29;20596;-95
2024/01/25 06:42:34;;;;;;;29.17;5.70;;;3.90;99.90;;;;;;4922830;23;20606;-94
2024/01/25 06:45:00;;;;;;;44.63;6.27;;;4.10;99.90;;;;;;4886733;29;20048;-93
2024/01/25 06:47:29;;;;;;;34.07;4.80;;;5.30;99.90;;;;;;4902728;29;20044;-94
2024/01/25 06:50:05;;;;;;;34.70;5.03;;;3.80;99.90;;;;;;4903265;29;20040;-94
2024/01/25 06:52:34;;;;;;;30.17;5.40;;;4.10;99.90;;;;;;4903987;29;20556;-95
2024/01/25 06:55:50;;;;;;;27.70;5.70;;;4.70;99.90;;;;;;4914412;29;20048;-92
2024/01/25 06:58:19;;;;;;;35.83;6.20;;;4.70;99.90;;;;;;4899404;29;20084;-85
2024/01/25 07:04:09;;;;;;;27.88;5.35;;;3.90;99.90;;;;;;4916660;29;20507;-86
2024/01/25 07:06:35;;;;;;;20.90;3.70;;;3.80;99.90;;;;;;4918035;29;20051;-85
2024/01/25 07:09:13;;;;;;;23.87;5.50;;;3.60;99.90;;;;;;4917717;29;20044;-86
2024/01/25 07:11:44;;;;;;;19.17;3.90;;;3.90;99.90;;;;;;4935222;29;20085;-87
2024/01/25 07:14:10;;;;;;;27.80;4.37;;;3.90;99.90;;;;;;4918130;29;20472;-82
2024/01/25 07:16:35;;;;;;;24.33;3.50;;;3.60;99.90;;;;;;4918631;29;20131;-84
2024/01/25 07:19:01;;;;;;;25.50;4.33;;;3.70;99.90;;;;;;4917534;29;20099;-89
2024/01/25 07:21:26;;;;;;;20.23;4.83;;;4.20;99.90;;;;;;4920628;29;20487;-89
2024/01/25 07:23:52;;;;;;;21.00;4.43;;;3.90;99.90;;;;;;4922587;29;20048;-88
2024/01/25 07:26:18;;;;;;;22.90;4.60;;;3.80;99.90;;;;;;4919707;29;20067;-90
2024/01/25 07:28:44;;;;;;;23.97;3.93;;;3.80;99.90;;;;;;4919457;29;20103;-89
2024/01/25 07:31:10;;;;;;;35.07;4.00;;;3.70;99.90;;;;;;4917975;29;20183;-87
2024/01/25 07:33:36;;;;;;;19.63;4.30;;;3.60;99.90;;;;;;4905299;29;20048;-85
2024/01/25 07:36:02;;;;;;;36.17;4.90;;;4.40;99.90;;;;;;4888051;29;20070;-86
2024/01/25 07:38:28;;;;;;;22.47;4.80;;;3.40;99.90;;;;;;4882202;29;20052;-86
2024/01/25 07:40:55;;;;;;;30.70;5.37;;;3.40;99.90;;;;;;4894473;29;20049;-85
2024/01/25 07:43:21;;;;;;;28.47;5.00;;;3.30;99.90;;;;;;4879854;29;20105;-86
2024/01/25 07:45:46;;;;;;;23.67;4.37;;;3.20;99.90;;;;;;4879979;29;20545;-86
2024/01/25 07:48:12;;;;;;;27.07;4.43;;;3.20;99.90;;;;;;4882274;29;20048;-86
2024/01/25 07:50:38;;;;;;;30.27;5.70;;;3.20;99.90;;;;;;4883352;29;20048;-86
2024/01/25 07:53:03;;;;;;;36.23;5.60;;;3.10;99.90;;;;;;4883434;29;20056;-86
2024/01/25 07:55:29;;;;;;;27.10;5.37;;;3.10;99.90;;;;;;4882413;29;20080;-86
2024/01/25 07:57:55;;;;;;;35.47;5.80;;;3.10;99.90;;;;;;4882171;29;20449;-85
2024/01/25 08:00:21;;;;;;;41.67;6.90;;;3.20;99.90;;;;;;4884006;29;20048;-86
2024/01/25 08:02:46;;;;;;;32.07;6.20;;;3.20;99.90;;;;;;4890125;29;20884;-83
2024/01/25 08:05:12;;;;;;;31.37;6.73;;;3.20;99.90;;;;;;4912376;29;20161;-83
2024/01/25 08:07:42;;;;;;;35.77;7.47;;;4.20;99.90;;;;;;4890473;29;20049;-93
2024/01/25 08:10:08;;;;;;;31.17;6.77;;;3.80;99.90;;;;;;4897607;29;20075;-87
2024/01/25 08:12:34;;;;;;;43.63;7.50;;;3.20;99.90;;;;;;4897728;29;20473;-88
2024/01/25 08:14:59;;;;;;;35.97;5.83;;;4.10;99.90;;;;;;4895988;29;20054;-87
2024/01/25 08:17:25;;;;;;;39.30;6.03;;;3.50;99.90;;;;;;4889069;29;20126;-86
2024/01/25 08:19:51;;;;;;;33.00;5.93;;;3.30;99.90;;;;;;4894414;29;20044;-86
2024/01/25 08:22:17;;;;;;;37.83;6.23;;;4.10;99.90;;;;;;4890276;29;20127;-87
2024/01/25 08:24:43;;;;;;;34.13;6.37;;;4.40;99.90;;;;;;4891727;29;20044;-87
2024/01/25 08:27:09;;;;;;;33.03;6.13;;;3.40;99.90;;;;;;4891528;29;20040;-87
2024/01/25 08:29:35;;;;;;;36.73;6.33;;;3.40;99.90;;;;;;4889035;29;20131;-87
2024/01/25 08:32:01;;;;;;;29.87;5.97;;;5.00;99.90;;;;;;4889111;29;20127;-87
2024/01/25 08:34:27;;;;;;;38.93;6.23;;;4.40;99.90;;;;;;4893173;29;20119;-87
2024/01/25 08:36:52;;;;;;;43.33;5.67;;;3.50;99.90;;;;;;4892330;29;20477;-88
2024/01/25 08:39:18;;;;;;;33.20;6.40;;;3.90;99.90;;;;;;4896324;29;20412;-87
2024/01/25 08:41:49;;;;;;;35.17;6.47;;;4.50;99.90;;;;;;4891819;29;20040;-88
2024/01/25 08:44:16;;;;;;;37.00;6.93;;;3.70;99.90;;;;;;4893408;29;20118;-89
2024/01/25 08:46:43;;;;;;;35.00;6.33;;;3.70;99.90;;;;;;4889934;29;20052;-88
2024/01/25 08:49:10;;;;;;;30.63;5.80;;;4.50;99.90;;;;;;4890038;29;20052;-89
2024/01/25 08:51:35;;;;;;;36.17;7.03;;;3.70;99.90;;;;;;4893884;29;20923;-90
2024/01/25 08:54:03;;;;;;;30.87;5.83;;;3.70;99.90;;;;;;4896594;29;20086;-89
2024/01/25 08:59:10;;;;;;;40.97;7.37;;;3.80;99.90;;;;;;4756074;26;20056;-88
2024/01/25 09:01:53;;;;;;;33.93;6.70;;;3.90;99.90;;;;;;4932561;29;20061;-88
2024/01/25 09:04:34;;;;;;;30.80;5.90;;;3.70;99.90;;;;;;4933953;29;20074;-88
2024/01/25 09:07:22;;;;;;;36.27;5.93;;;3.90;99.90;;;;;;4932043;29;20154;-88
2024/01/25 09:09:51;;;;;;;33.17;6.10;;;4.70;99.90;;;;;;4934254;29;20054;-88
2024/01/25 09:12:17;;;;;;;30.67;5.97;;;4.20;99.90;;;;;;4927853;28;20039;-88
2024/01/25 09:14:46;;;;;;;35.77;6.50;;;4.00;99.90;;;;;;4930179;28;20043;-89
2024/01/25 09:17:16;;;;;;;46.60;7.63;;;4.00;99.90;;;;;;4927554;29;20042;-88
2024/01/25 09:19:41;;;;;;;28.60;5.53;;;4.10;99.90;;;;;;4927259;28;20479;-87
2024/01/25 09:22:07;;;;;;;33.57;6.93;;;4.10;99.90;;;;;;4926725;29;20040;-87
2024/01/25 09:24:35;;;;;;;40.67;7.00;;;4.20;99.90;;;;;;4961260;28;20122;-88
2024/01/25 09:27:02;;;;;;;28.40;6.17;;;4.20;99.90;;;;;;4927854;29;20547;-87
2024/01/25 09:29:28;;;;;;;33.37;7.47;;;5.60;99.90;;;;;;4927523;29;20046;-88
2024/01/25 09:31:54;;;;;;;29.43;5.87;;;4.30;99.90;;;;;;4929879;29;20043;-86
2024/01/25 09:34:21;;;;;;;31.20;6.63;;;4.50;99.90;;;;;;4934370;29;20031;-87
2024/01/25 09:36:47;;;;;;;29.03;6.07;;;4.50;99.90;;;;;;4932418;29;20047;-87
2024/01/25 09:39:14;;;;;;;36.43;6.10;;;5.30;99.90;;;;;;4927108;28;20717;-88
2024/01/25 09:41:40;;;;;;;30.90;5.87;;;4.60;99.90;;;;;;4935687;29;20055;-89
2024/01/25 09:44:08;;;;;;;29.07;6.30;;;6.30;99.90;;;;;;4935808;29;20075;-86
2024/01/25 09:46:35;;;;;;;30.97;6.20;;;4.80;99.90;;;;;;4935401;29;20074;-85
2024/01/25 09:49:01;;;;;;;36.37;7.37;;;4.90;99.90;;;;;;4933347;29;20043;-87
2024/01/25 09:51:27;;;;;;;36.17;7.40;;;4.90;99.90;;;;;;4933879;29;20086;-86
2024/01/25 09:53:54;;;;;;;33.10;6.53;;;5.00;99.90;;;;;;4937836;29;20043;-86
2024/01/25 09:58:54;;;;;;;35.23;7.33;;;5.10;99.90;;;;;;5406439;23;20064;-85
2024/01/25 10:01:19;;;;;;;37.90;8.27;;;5.20;99.90;;;;;;4939638;29;20044;-86
2024/01/25 10:03:48;;;;;;;29.67;7.73;;;5.90;99.90;;;;;;4922603;29;20046;-88
2024/01/25 10:06:15;;;;;;;37.10;7.17;;;5.30;99.90;;;;;;4924482;29;20051;-87
2024/01/25 10:08:41;;;;;;;31.87;7.77;;;5.30;99.90;;;;;;4926333;29;20036;-88
2024/01/25 10:11:13;;;;;;;29.43;7.00;;;5.40;99.90;;;;;;4927030;29;20415;-87
2024/01/25 10:13:50;;;;;;;31.63;7.03;;;6.20;99.90;;;;;;4925373;29;20477;-87
2024/01/25 10:16:18;;;;;;;35.33;7.03;;;5.50;99.90;;;;;;4926825;29;20055;-86
2024/01/25 10:18:45;;;;;;;27.23;7.53;;;5.50;99.90;;;;;;4931575;29;20044;-86
2024/01/25 10:21:12;;;;;;;34.60;8.07;;;5.50;99.90;;;;;;4923579;29;20047;-86
2024/01/25 10:23:43;;;;;;;29.93;8.13;;;5.60;99.90;;;;;;4924257;29;20055;-86
2024/01/25 10:26:09;;;;;;;34.87;7.37;;;5.60;99.90;;;;;;4922200;29;20040;-86
2024/01/25 10:28:35;;;;;;;35.63;7.90;;;5.70;99.90;;;;;;4927699;29;20051;-87
2024/01/25 10:31:03;;;;;;;29.97;6.93;;;5.70;99.90;;;;;;4929178;29;20039;-87
2024/01/25 10:33:33;;;;;;;27.10;6.57;;;5.80;99.90;;;;;;4921647;29;20435;-87
2024/01/25 10:36:03;;;;;;;32.57;7.13;;;5.90;99.90;;;;;;4931945;29;20050;-87
2024/01/25 10:38:37;;;;;;;36.97;7.13;;;5.90;99.90;;;;;;4930346;29;20130;-87
2024/01/25 10:41:05;;;;;;;36.83;6.60;;;5.80;99.90;;;;;;4928954;29;20063;-87
2024/01/25 10:43:32;;;;;;;27.43;6.40;;;5.90;99.90;;;;;;4923342;29;20441;-87
2024/01/25 10:45:58;;;;;;;30.60;6.68;;;6.00;99.90;;;;;;4926482;29;20047;-86
2024/01/25 10:48:28;;;;;;;27.27;6.13;;;6.40;99.90;;;;;;4931194;29;20130;-87
2024/01/25 10:50:55;;;;;;;28.33;6.43;;;6.10;99.90;;;;;;4906785;29;20098;-88
2024/01/25 10:53:22;;;;;;;25.77;7.10;;;6.10;99.90;;;;;;4909516;29;20047;-87
2024/01/25 10:55:48;;;;;;;28.20;6.37;;;6.90;99.90;;;;;;4922767;29;20059;-88
2024/01/25 10:58:15;;;;;;;29.90;7.47;;;6.30;99.90;;;;;;4922938;29;20059;-87
2024/01/25 11:00:41;;;;;;;31.20;6.70;;;6.40;99.90;;;;;;4938098;29;20496;-87
2024/01/25 11:03:07;;;;;;;28.97;6.43;;;6.40;99.90;;;;;;4921233;29;20056;-87
2024/01/25 11:05:32;;;;;;;38.97;6.60;;;6.40;99.90;;;;;;4924888;29;20092;-87
2024/01/25 11:07:58;;;;;;;25.37;6.03;;;6.40;99.90;;;;;;4931445;29;20048;-87
2024/01/25 11:10:25;;;;;;;29.93;6.40;;;6.50;99.90;;;;;;4928031;29;20054;-87
2024/01/25 11:12:55;;;;;;;31.43;7.17;;;6.70;99.90;;;;;;4934422;29;20488;-87
2024/01/25 11:15:41;;;;;;;33.23;6.80;;;6.80;99.90;;;;;;4934440;29;20052;-90
2024/01/25 11:18:08;;;;;;;27.80;6.20;;;8.00;99.90;;;;;;4933726;29;20090;-89
2024/01/25 11:20:36;;;;;;;33.13;6.90;;;7.30;99.90;;;;;;4933234;29;20047;-89
2024/01/25 11:23:06;;;;;;;30.73;6.53;;;8.40;99.90;;;;;;4937656;29;20051;-89
2024/01/25 11:25:34;;;;;;;24.57;6.03;;;7.50;99.90;;;;;;4938220;29;20134;-89
2024/01/25 11:28:01;;;;;;;30.97;6.10;;;7.90;99.90;;;;;;4938667;29;20130;-89
2024/01/25 11:30:29;;;;;;;28.77;6.03;;;7.90;99.90;;;;;;4937736;29;20071;-89
2024/01/25 11:32:55;;;;;;;29.33;6.70;;;7.70;99.90;;;;;;4937515;29;20103;-85
2024/01/25 11:35:21;;;;;;;26.03;6.13;;;7.70;99.90;;;;;;4937228;29;20047;-89
2024/01/25 11:37:48;;;;;;;26.90;6.03;;;7.80;99.90;;;;;;4922142;29;20090;-90
2024/01/25 11:40:15;;;;;;;27.85;6.63;;;7.90;99.90;;;;;;4936697;29;20059;-86
2024/01/25 11:42:48;;;;;;;29.15;6.72;;;8.80;99.90;;;;;;4923944;29;20043;-86
2024/01/25 11:45:17;;;;;;;27.92;6.53;;;8.00;99.90;;;;;;4925578;29;20540;-86
2024/01/25 11:47:43;;;;;;;29.33;5.97;;;7.90;99.90;;;;;;4927808;29;20103;-86
2024/01/25 11:50:10;;;;;;;26.63;6.07;;;7.80;99.90;;;;;;4923787;29;20119;-85
2024/01/25 11:52:37;;;;;;;31.48;6.30;;;7.80;99.90;;;;;;4941688;29;20051;-85
2024/01/25 11:55:05;;;;;;;29.50;6.03;;;8.70;99.90;;;;;;4932306;29;20048;-86
2024/01/25 11:57:34;;;;;;;27.77;6.25;;;7.70;99.90;;;;;;4933250;29;20040;-86
2024/01/25 12:00:00;;;;;;;27.98;6.40;;;7.80;99.90;;;;;;4927865;29;20059;-86
2024/01/25 12:02:26;;;;;;;29.80;5.88;;;7.80;99.90;;;;;;4926209;29;20056;-87
2024/01/25 12:04:53;;;;;;;28.48;6.40;;;7.80;99.90;;;;;;4925625;29;20044;-89
2024/01/25 12:07:20;;;;;;;34.92;6.63;;;9.00;99.90;;;;;;4927837;29;20102;-89
2024/01/25 12:10:03;;;;;;;24.67;7.15;;;8.90;99.90;;;;;;4912218;29;20062;-92
2024/01/25 12:12:29;;;;;;;34.40;6.68;;;7.70;99.90;;;;;;4927986;29;20076;-89
2024/01/25 12:15:03;;;;;;;27.63;5.90;;;7.70;99.90;;;;;;4929911;29;20052;-87
2024/01/25 12:17:33;;;;;;;34.25;6.07;;;7.70;99.90;;;;;;4925214;29;20127;-86
2024/01/25 12:19:59;;;;;;;30.92;6.03;;;7.70;99.90;;;;;;4924561;29;20043;-87
2024/01/25 12:22:29;;;;;;;24.13;5.57;;;7.70;99.90;;;;;;4933135;29;20044;-87
2024/01/25 12:24:58;;;;;;;28.13;5.80;;;7.70;99.90;;;;;;4926186;29;20047;-85
2024/01/25 12:27:25;;;;;;;29.75;5.85;;;8.60;99.90;;;;;;4924375;29;20506;-85
2024/01/25 12:29:55;;;;;;;25.92;6.15;;;8.20;99.90;;;;;;4929387;29;20047;-86
2024/01/25 12:32:21;;;;;;;27.85;5.88;;;7.70;99.90;;;;;;4930961;29;20044;-85
2024/01/25 12:34:57;;;;;;;24.25;5.78;;;7.80;99.90;;;;;;4931426;29;20048;-86
2024/01/25 12:37:23;;;;;;;28.55;6.82;;;7.90;99.90;;;;;;4928627;29;20040;-87
2024/01/25 12:39:51;;;;;;;29.33;5.75;;;9.40;99.90;;;;;;4937299;29;20058;-86
2024/01/25 12:42:17;;;;;;;22.63;5.32;;;8.20;99.90;;;;;;4935716;29;20480;-84
2024/01/25 12:44:43;;;;;;;22.95;5.60;;;9.00;99.90;;;;;;4937093;28;20059;-86
2024/01/25 12:47:09;;;;;;;24.65;5.05;;;8.20;99.90;;;;;;4937111;29;20170;-85
2024/01/25 12:49:35;;;;;;;27.60;5.88;;;8.20;99.90;;;;;;4936849;29;20546;-86
2024/01/25 12:52:01;;;;;;;28.75;5.60;;;8.40;99.90;;;;;;4935264;29;20110;-86
2024/01/25 12:54:28;;;;;;;25.50;5.00;;;8.10;99.90;;;;;;4935468;29;20043;-86
2024/01/25 12:56:54;;;;;;;22.98;5.32;;;8.00;99.90;;;;;;4935229;29;20440;-86
2024/01/25 12:59:20;;;;;;;29.05;6.93;;;9.30;99.90;;;;;;4936406;29;20056;-86
2024/01/25 13:01:46;;;;;;;26.52;5.40;;;8.10;99.90;;;;;;4920510;29;20521;-86
2024/01/25 13:04:12;;;;;;;27.60;6.55;;;8.00;99.90;;;;;;4935168;29;20055;-86
2024/01/25 13:06:37;;;;;;;23.70;5.18;;;8.10;99.90;;;;;;4935987;29;20047;-86
2024/01/25 13:09:03;;;;;;;21.70;5.30;;;8.10;99.90;;;;;;4937037;29;20110;-86
2024/01/25 13:11:29;;;;;;;24.55;5.45;;;8.10;99.90;;;;;;4935228;29;20084;-85
2024/01/25 13:13:55;;;;;;;28.45;5.53;;;8.60;99.90;;;;;;4935822;29;20107;-86
2024/01/25 13:16:21;;;;;;;23.08;5.30;;;8.10;99.90;;;;;;4919901;29;20052;-85
2024/01/25 13:18:46;;;;;;;24.92;4.93;;;8.10;99.90;;;;;;4916086;29;20048;-86
2024/01/25 13:21:12;;;;;;;24.33;5.17;;;9.70;99.90;;;;;;4917100;29;20040;-86
2024/01/25 13:23:38;;;;;;;23.70;5.77;;;8.10;99.90;;;;;;4917183;29;20453;-86